sensor_id;sensor_type;location;lat;lon;timestamp;temperature;humidity
29551;DHT22;16488;52.396;10.696;2023-05-02T00:00:36;13.10;99.30
29551;DHT22;16488;52.396;10.696;2023-05-02T00:03:03;12.90;99.80
29551;DHT22;16488;52.396;10.696;2023-05-02T00:05:29;12.80;99.80
29551;DHT22;16488;52.396;10.696;2023-05-02T00:07:55;12.70;99.90
29551;DHT22;16488;52.396;10.696;2023-05-02T00:10:21;12.60;99.90
29551;DHT22;16488;52.396;10.696;2023-05-02T00:12:47;12.80;99.90
29551;DHT22;16488;52.396;10.696;2023-05-02T00:15:12;12.60;99.90
29551;DHT22;16488;52.396;10.696;2023-05-02T00:17:41;12.60;99.90
29551;DHT22;16488;52.396;10.696;2023-05-02T00:20:08;12.50;99.90
29551;DHT22;16488;52.396;10.696;2023-05-02T00:22:34;12.50;99.90
29551;DHT22;16488;52.396;10.696;2023-05-02T00:25:00;12.50;99.90
29551;DHT22;16488;52.396;10.696;2023-05-02T00:27:26;12.40;99.90
29551;DHT22;16488;52.396;10.696;2023-05-02T00:29:52;12.40;99.90
29551;DHT22;16488;52.396;10.696;2023-05-02T00:32:18;12.40;99.90
29551;DHT22;16488;52.396;10.696;2023-05-02T00:34:44;12.40;99.90
29551;DHT22;16488;52.396;10.696;2023-05-02T00:37:09;12.40;99.90
29551;DHT22;16488;52.396;10.696;2023-05-02T00:39:35;12.50;99.90
29551;DHT22;16488;52.396;10.696;2023-05-02T00:42:01;12.50;99.90
29551;DHT22;16488;52.396;10.696;2023-05-02T00:44:27;12.60;99.90
29551;DHT22;16488;52.396;10.696;2023-05-02T00:46:54;12.60;99.90
29551;DHT22;16488;52.396;10.696;2023-05-02T00:49:20;12.60;99.90
29551;DHT22;16488;52.396;10.696;2023-05-02T00:51:46;12.70;99.90
29551;DHT22;16488;52.396;10.696;2023-05-02T00:54:12;12.70;99.90
29551;DHT22;16488;52.396;10.696;2023-05-02T00:56:38;12.70;99.90
29551;DHT22;16488;52.396;10.696;2023-05-02T00:59:05;12.80;99.90
29551;DHT22;16488;52.396;10.696;2023-05-02T01:04:42;12.60;99.90
29551;DHT22;16488;52.396;10.696;2023-05-02T01:10:13;12.50;99.90
29551;DHT22;16488;52.396;10.696;2023-05-02T01:12:59;12.50;99.90
29551;DHT22;16488;52.396;10.696;2023-05-02T01:15:27;12.50;99.90
29551;DHT22;16488;52.396;10.696;2023-05-02T01:17:54;12.40;99.90
29551;DHT22;16488;52.396;10.696;2023-05-02T01:20:23;12.30;99.90
29551;DHT22;16488;52.396;10.696;2023-05-02T01:22:51;12.30;99.90
29551;DHT22;16488;52.396;10.696;2023-05-02T01:25:30;12.30;99.90
29551;DHT22;16488;52.396;10.696;2023-05-02T01:30:31;12.30;99.90
29551;DHT22;16488;52.396;10.696;2023-05-02T01:32:58;12.20;99.90
29551;DHT22;16488;52.396;10.696;2023-05-02T01:35:26;12.20;99.90
29551;DHT22;16488;52.396;10.696;2023-05-02T01:37:53;12.20;99.90
29551;DHT22;16488;52.396;10.696;2023-05-02T01:40:20;12.20;99.90
29551;DHT22;16488;52.396;10.696;2023-05-02T01:42:49;12.10;99.90
29551;DHT22;16488;52.396;10.696;2023-05-02T01:45:15;12.10;99.90
29551;DHT22;16488;52.396;10.696;2023-05-02T01:47:42;12.10;99.90
29551;DHT22;16488;52.396;10.696;2023-05-02T01:50:11;12.10;99.90
29551;DHT22;16488;52.396;10.696;2023-05-02T01:52:41;12.10;99.90
29551;DHT22;16488;52.396;10.696;2023-05-02T01:55:11;12.10;99.90
29551;DHT22;16488;52.396;10.696;2023-05-02T01:57:39;12.10;99.90
29551;DHT22;16488;52.396;10.696;2023-05-02T02:00:06;12.00;99.90
29551;DHT22;16488;52.396;10.696;2023-05-02T02:02:34;12.00;99.90
29551;DHT22;16488;52.396;10.696;2023-05-02T02:05:01;12.00;99.90
29551;DHT22;16488;52.396;10.696;2023-05-02T02:07:28;12.00;99.90
29551;DHT22;16488;52.396;10.696;2023-05-02T02:09:54;12.00;99.90
29551;DHT22;16488;52.396;10.696;2023-05-02T02:12:28;12.00;99.90
29551;DHT22;16488;52.396;10.696;2023-05-02T02:15:02;12.00;99.90
29551;DHT22;16488;52.396;10.696;2023-05-02T02:17:36;11.90;99.90
29551;DHT22;16488;52.396;10.696;2023-05-02T02:20:05;11.90;99.90
29551;DHT22;16488;52.396;10.696;2023-05-02T02:22:34;11.80;99.90
29551;DHT22;16488;52.396;10.696;2023-05-02T02:25:04;11.70;99.90
29551;DHT22;16488;52.396;10.696;2023-05-02T02:27:30;11.80;99.90
29551;DHT22;16488;52.396;10.696;2023-05-02T02:29:56;11.80;99.90
29551;DHT22;16488;52.396;10.696;2023-05-02T02:32:22;11.80;99.90
29551;DHT22;16488;52.396;10.696;2023-05-02T02:34:49;11.80;99.90
29551;DHT22;16488;52.396;10.696;2023-05-02T02:37:19;11.70;99.90
29551;DHT22;16488;52.396;10.696;2023-05-02T02:40:08;11.70;99.90
29551;DHT22;16488;52.396;10.696;2023-05-02T02:42:54;11.70;99.90
29551;DHT22;16488;52.396;10.696;2023-05-02T02:45:38;11.60;99.90
29551;DHT22;16488;52.396;10.696;2023-05-02T02:48:24;11.60;99.90
29551;DHT22;16488;52.396;10.696;2023-05-02T02:54:17;11.60;99.90
29551;DHT22;16488;52.396;10.696;2023-05-02T02:56:27;11.60;99.90
29551;DHT22;16488;52.396;10.696;2023-05-02T03:01:33;11.70;99.90
29551;DHT22;16488;52.396;10.696;2023-05-02T03:04:02;11.80;99.90
29551;DHT22;16488;52.396;10.696;2023-05-02T03:06:30;11.70;99.90
29551;DHT22;16488;52.396;10.696;2023-05-02T03:08:56;11.70;99.90
29551;DHT22;16488;52.396;10.696;2023-05-02T03:11:21;11.70;99.90
29551;DHT22;16488;52.396;10.696;2023-05-02T03:13:47;11.70;99.90
29551;DHT22;16488;52.396;10.696;2023-05-02T03:16:30;11.70;99.90
29551;DHT22;16488;52.396;10.696;2023-05-02T03:18:56;11.70;99.90
29551;DHT22;16488;52.396;10.696;2023-05-02T03:21:22;11.60;99.90
29551;DHT22;16488;52.396;10.696;2023-05-02T03:23:48;11.60;99.90
29551;DHT22;16488;52.396;10.696;2023-05-02T03:26:13;11.60;99.90
29551;DHT22;16488;52.396;10.696;2023-05-02T03:28:39;11.60;99.90
29551;DHT22;16488;52.396;10.696;2023-05-02T03:31:04;11.60;99.90
29551;DHT22;16488;52.396;10.696;2023-05-02T03:33:30;11.60;99.90
29551;DHT22;16488;52.396;10.696;2023-05-02T03:35:56;11.50;99.90
29551;DHT22;16488;52.396;10.696;2023-05-02T03:38:22;11.40;99.90
29551;DHT22;16488;52.396;10.696;2023-05-02T03:40:48;11.30;99.90
29551;DHT22;16488;52.396;10.696;2023-05-02T03:43:14;11.30;99.90
29551;DHT22;16488;52.396;10.696;2023-05-02T03:45:39;11.30;99.90
29551;DHT22;16488;52.396;10.696;2023-05-02T03:48:05;11.30;99.90
29551;DHT22;16488;52.396;10.696;2023-05-02T03:50:30;11.20;99.90
29551;DHT22;16488;52.396;10.696;2023-05-02T03:52:56;11.20;99.90
29551;DHT22;16488;52.396;10.696;2023-05-02T03:55:22;11.10;99.90
29551;DHT22;16488;52.396;10.696;2023-05-02T03:57:48;11.10;99.90
29551;DHT22;16488;52.396;10.696;2023-05-02T04:00:13;11.10;99.90
29551;DHT22;16488;52.396;10.696;2023-05-02T04:02:39;11.10;99.90
29551;DHT22;16488;52.396;10.696;2023-05-02T04:05:05;11.00;99.90
29551;DHT22;16488;52.396;10.696;2023-05-02T04:07:30;11.00;99.90
29551;DHT22;16488;52.396;10.696;2023-05-02T04:09:56;11.00;99.90
29551;DHT22;16488;52.396;10.696;2023-05-02T04:12:21;11.10;99.90
29551;DHT22;16488;52.396;10.696;2023-05-02T04:14:47;11.10;99.90
29551;DHT22;16488;52.396;10.696;2023-05-02T04:17:13;11.10;99.90
29551;DHT22;16488;52.396;10.696;2023-05-02T04:19:40;11.20;99.90
29551;DHT22;16488;52.396;10.696;2023-05-02T04:22:05;11.20;99.90
29551;DHT22;16488;52.396;10.696;2023-05-02T04:24:31;11.20;99.90
29551;DHT22;16488;52.396;10.696;2023-05-02T04:26:57;11.20;99.90
29551;DHT22;16488;52.396;10.696;2023-05-02T04:29:22;11.10;99.90
29551;DHT22;16488;52.396;10.696;2023-05-02T04:31:48;11.10;99.90
29551;DHT22;16488;52.396;10.696;2023-05-02T04:34:15;11.20;99.90
29551;DHT22;16488;52.396;10.696;2023-05-02T04:36:40;11.10;99.90
29551;DHT22;16488;52.396;10.696;2023-05-02T04:39:06;11.10;99.90
29551;DHT22;16488;52.396;10.696;2023-05-02T04:41:32;11.20;99.90
29551;DHT22;16488;52.396;10.696;2023-05-02T04:43:58;11.30;99.90
29551;DHT22;16488;52.396;10.696;2023-05-02T04:46:24;11.30;99.90
29551;DHT22;16488;52.396;10.696;2023-05-02T04:48:49;11.30;99.90
29551;DHT22;16488;52.396;10.696;2023-05-02T04:51:16;11.30;99.90
29551;DHT22;16488;52.396;10.696;2023-05-02T04:53:41;11.30;99.90
29551;DHT22;16488;52.396;10.696;2023-05-02T04:56:07;11.20;99.90
29551;DHT22;16488;52.396;10.696;2023-05-02T04:58:33;11.20;99.90
29551;DHT22;16488;52.396;10.696;2023-05-02T05:00:59;11.20;99.90
29551;DHT22;16488;52.396;10.696;2023-05-02T05:03:26;11.30;99.90
29551;DHT22;16488;52.396;10.696;2023-05-02T05:05:54;11.30;99.90
29551;DHT22;16488;52.396;10.696;2023-05-02T05:08:19;11.30;99.90
29551;DHT22;16488;52.396;10.696;2023-05-02T05:10:45;11.30;99.90
29551;DHT22;16488;52.396;10.696;2023-05-02T05:13:11;11.30;99.90
29551;DHT22;16488;52.396;10.696;2023-05-02T05:15:38;11.30;99.90
29551;DHT22;16488;52.396;10.696;2023-05-02T05:18:04;11.30;99.90
29551;DHT22;16488;52.396;10.696;2023-05-02T05:20:30;11.30;99.90
29551;DHT22;16488;52.396;10.696;2023-05-02T05:22:55;11.30;99.90
29551;DHT22;16488;52.396;10.696;2023-05-02T05:25:21;11.40;99.90
29551;DHT22;16488;52.396;10.696;2023-05-02T05:27:47;11.40;99.90
29551;DHT22;16488;52.396;10.696;2023-05-02T05:30:12;11.40;99.90
29551;DHT22;16488;52.396;10.696;2023-05-02T05:32:38;11.40;99.90
29551;DHT22;16488;52.396;10.696;2023-05-02T05:35:04;11.40;99.90
29551;DHT22;16488;52.396;10.696;2023-05-02T05:37:30;11.40;99.90
29551;DHT22;16488;52.396;10.696;2023-05-02T05:39:55;11.40;99.90
29551;DHT22;16488;52.396;10.696;2023-05-02T05:42:21;11.40;99.90
29551;DHT22;16488;52.396;10.696;2023-05-02T05:44:46;11.40;99.90
29551;DHT22;16488;52.396;10.696;2023-05-02T05:47:12;11.40;99.90
29551;DHT22;16488;52.396;10.696;2023-05-02T05:49:42;11.30;99.90
29551;DHT22;16488;52.396;10.696;2023-05-02T05:52:08;11.20;99.90
29551;DHT22;16488;52.396;10.696;2023-05-02T05:54:34;11.20;99.90
29551;DHT22;16488;52.396;10.696;2023-05-02T05:57:00;11.20;99.90
29551;DHT22;16488;52.396;10.696;2023-05-02T05:59:25;11.00;99.90
29551;DHT22;16488;52.396;10.696;2023-05-02T06:01:51;11.10;99.90
29551;DHT22;16488;52.396;10.696;2023-05-02T06:04:18;11.00;99.90
29551;DHT22;16488;52.396;10.696;2023-05-02T06:06:44;11.00;99.90
29551;DHT22;16488;52.396;10.696;2023-05-02T06:09:09;11.00;99.90
29551;DHT22;16488;52.396;10.696;2023-05-02T06:11:36;11.00;99.90
29551;DHT22;16488;52.396;10.696;2023-05-02T06:14:02;11.00;99.90
29551;DHT22;16488;52.396;10.696;2023-05-02T06:16:28;10.90;99.90
29551;DHT22;16488;52.396;10.696;2023-05-02T06:18:53;10.90;99.90
29551;DHT22;16488;52.396;10.696;2023-05-02T06:21:19;10.90;99.90
29551;DHT22;16488;52.396;10.696;2023-05-02T06:23:45;10.80;99.90
29551;DHT22;16488;52.396;10.696;2023-05-02T06:26:11;10.60;99.90
29551;DHT22;16488;52.396;10.696;2023-05-02T06:28:37;10.60;99.90
29551;DHT22;16488;52.396;10.696;2023-05-02T06:31:04;10.50;99.90
29551;DHT22;16488;52.396;10.696;2023-05-02T06:33:31;10.40;99.90
29551;DHT22;16488;52.396;10.696;2023-05-02T06:35:58;10.40;99.90
29551;DHT22;16488;52.396;10.696;2023-05-02T06:38:24;10.30;99.90
29551;DHT22;16488;52.396;10.696;2023-05-02T06:40:50;10.20;99.90
29551;DHT22;16488;52.396;10.696;2023-05-02T06:43:16;10.10;99.90
29551;DHT22;16488;52.396;10.696;2023-05-02T06:45:42;10.10;99.90
29551;DHT22;16488;52.396;10.696;2023-05-02T06:48:08;10.00;99.90
29551;DHT22;16488;52.396;10.696;2023-05-02T06:50:34;10.00;99.90
29551;DHT22;16488;52.396;10.696;2023-05-02T06:52:59;10.00;99.90
29551;DHT22;16488;52.396;10.696;2023-05-02T06:55:25;10.00;99.90
29551;DHT22;16488;52.396;10.696;2023-05-02T06:57:52;10.10;99.90
29551;DHT22;16488;52.396;10.696;2023-05-02T07:00:19;10.10;99.90
29551;DHT22;16488;52.396;10.696;2023-05-02T07:02:45;10.20;99.90
29551;DHT22;16488;52.396;10.696;2023-05-02T07:05:11;10.40;99.90
29551;DHT22;16488;52.396;10.696;2023-05-02T07:07:38;10.40;99.90
29551;DHT22;16488;52.396;10.696;2023-05-02T07:10:04;10.40;99.90
29551;DHT22;16488;52.396;10.696;2023-05-02T07:12:29;10.40;99.90
29551;DHT22;16488;52.396;10.696;2023-05-02T07:14:55;10.30;99.90
29551;DHT22;16488;52.396;10.696;2023-05-02T07:17:20;10.10;99.90
29551;DHT22;16488;52.396;10.696;2023-05-02T07:19:46;10.00;99.90
29551;DHT22;16488;52.396;10.696;2023-05-02T07:22:12;10.00;99.90
29551;DHT22;16488;52.396;10.696;2023-05-02T07:24:41;10.00;99.90
29551;DHT22;16488;52.396;10.696;2023-05-02T07:27:11;10.10;99.90
29551;DHT22;16488;52.396;10.696;2023-05-02T07:29:37;10.20;99.90
29551;DHT22;16488;52.396;10.696;2023-05-02T07:32:04;10.20;99.90
29551;DHT22;16488;52.396;10.696;2023-05-02T07:34:30;10.30;99.90
29551;DHT22;16488;52.396;10.696;2023-05-02T07:36:56;10.30;99.90
29551;DHT22;16488;52.396;10.696;2023-05-02T07:39:23;10.20;99.90
29551;DHT22;16488;52.396;10.696;2023-05-02T07:41:53;10.20;99.90
29551;DHT22;16488;52.396;10.696;2023-05-02T07:44:19;10.20;99.90
29551;DHT22;16488;52.396;10.696;2023-05-02T07:46:45;10.20;99.90
29551;DHT22;16488;52.396;10.696;2023-05-02T07:49:12;10.20;99.90
29551;DHT22;16488;52.396;10.696;2023-05-02T07:51:37;10.20;99.90
29551;DHT22;16488;52.396;10.696;2023-05-02T07:56:42;10.20;99.90
29551;DHT22;16488;52.396;10.696;2023-05-02T07:59:08;10.20;99.90
29551;DHT22;16488;52.396;10.696;2023-05-02T08:01:34;10.10;99.90
29551;DHT22;16488;52.396;10.696;2023-05-02T08:04:00;10.10;99.90
29551;DHT22;16488;52.396;10.696;2023-05-02T08:06:25;10.10;99.90
29551;DHT22;16488;52.396;10.696;2023-05-02T08:08:51;10.10;99.90
29551;DHT22;16488;52.396;10.696;2023-05-02T08:11:16;10.10;99.90
29551;DHT22;16488;52.396;10.696;2023-05-02T08:13:42;10.10;99.90
29551;DHT22;16488;52.396;10.696;2023-05-02T08:16:08;10.10;99.90
29551;DHT22;16488;52.396;10.696;2023-05-02T08:18:33;10.20;99.90
29551;DHT22;16488;52.396;10.696;2023-05-02T08:20:59;10.20;99.90
29551;DHT22;16488;52.396;10.696;2023-05-02T08:23:24;10.30;99.90
29551;DHT22;16488;52.396;10.696;2023-05-02T08:25:50;10.30;99.90
29551;DHT22;16488;52.396;10.696;2023-05-02T08:28:16;10.40;99.90
29551;DHT22;16488;52.396;10.696;2023-05-02T08:30:43;10.50;99.90
29551;DHT22;16488;52.396;10.696;2023-05-02T08:33:09;10.80;99.90
29551;DHT22;16488;52.396;10.696;2023-05-02T08:35:35;11.00;99.90
29551;DHT22;16488;52.396;10.696;2023-05-02T08:38:01;11.20;99.90
29551;DHT22;16488;52.396;10.696;2023-05-02T08:40:26;11.20;99.90
29551;DHT22;16488;52.396;10.696;2023-05-02T08:42:53;11.30;99.90
29551;DHT22;16488;52.396;10.696;2023-05-02T08:45:19;11.20;99.90
29551;DHT22;16488;52.396;10.696;2023-05-02T08:47:47;11.00;99.90
29551;DHT22;16488;52.396;10.696;2023-05-02T08:50:15;11.00;99.90
29551;DHT22;16488;52.396;10.696;2023-05-02T08:52:42;11.00;99.90
29551;DHT22;16488;52.396;10.696;2023-05-02T08:55:10;11.00;99.90
29551;DHT22;16488;52.396;10.696;2023-05-02T08:57:37;11.00;99.90
29551;DHT22;16488;52.396;10.696;2023-05-02T09:00:04;10.90;99.90
29551;DHT22;16488;52.396;10.696;2023-05-02T09:02:50;11.00;99.90
29551;DHT22;16488;52.396;10.696;2023-05-02T09:05:23;11.00;99.90
29551;DHT22;16488;52.396;10.696;2023-05-02T09:07:50;10.90;99.90
29551;DHT22;16488;52.396;10.696;2023-05-02T09:10:16;10.90;99.90
29551;DHT22;16488;52.396;10.696;2023-05-02T09:12:42;10.90;99.90
29551;DHT22;16488;52.396;10.696;2023-05-02T09:15:15;10.80;99.90
29551;DHT22;16488;52.396;10.696;2023-05-02T09:17:43;10.90;99.90
29551;DHT22;16488;52.396;10.696;2023-05-02T09:20:10;10.80;99.90
29551;DHT22;16488;52.396;10.696;2023-05-02T09:22:37;10.80;99.90
29551;DHT22;16488;52.396;10.696;2023-05-02T09:25:07;10.80;99.90
29551;DHT22;16488;52.396;10.696;2023-05-02T09:28:08;10.60;99.90
29551;DHT22;16488;52.396;10.696;2023-05-02T09:30:34;10.60;99.90
29551;DHT22;16488;52.396;10.696;2023-05-02T09:32:59;10.60;99.90
29551;DHT22;16488;52.396;10.696;2023-05-02T09:35:25;10.70;99.90
29551;DHT22;16488;52.396;10.696;2023-05-02T09:37:55;10.70;99.90
29551;DHT22;16488;52.396;10.696;2023-05-02T09:40:22;10.60;99.90
29551;DHT22;16488;52.396;10.696;2023-05-02T09:42:49;10.40;99.90
29551;DHT22;16488;52.396;10.696;2023-05-02T09:45:22;10.30;99.90
29551;DHT22;16488;52.396;10.696;2023-05-02T09:47:49;10.30;99.90
29551;DHT22;16488;52.396;10.696;2023-05-02T09:50:34;10.40;99.90
29551;DHT22;16488;52.396;10.696;2023-05-02T09:53:01;10.50;99.90
29551;DHT22;16488;52.396;10.696;2023-05-02T09:55:27;10.50;99.90
29551;DHT22;16488;52.396;10.696;2023-05-02T09:57:53;10.60;99.90
29551;DHT22;16488;52.396;10.696;2023-05-02T10:00:18;10.70;99.90
29551;DHT22;16488;52.396;10.696;2023-05-02T10:02:46;10.80;99.90
29551;DHT22;16488;52.396;10.696;2023-05-02T10:05:14;10.90;99.90
29551;DHT22;16488;52.396;10.696;2023-05-02T10:07:43;10.90;99.90
29551;DHT22;16488;52.396;10.696;2023-05-02T10:10:15;10.80;99.90
29551;DHT22;16488;52.396;10.696;2023-05-02T10:12:42;10.70;99.90
29551;DHT22;16488;52.396;10.696;2023-05-02T10:15:09;10.60;99.90
29551;DHT22;16488;52.396;10.696;2023-05-02T10:17:47;10.50;99.90
29551;DHT22;16488;52.396;10.696;2023-05-02T10:20:18;10.60;99.90
29551;DHT22;16488;52.396;10.696;2023-05-02T10:22:46;10.60;99.90
29551;DHT22;16488;52.396;10.696;2023-05-02T10:25:14;10.60;99.90
29551;DHT22;16488;52.396;10.696;2023-05-02T10:27:40;10.80;99.90
29551;DHT22;16488;52.396;10.696;2023-05-02T10:30:06;10.70;99.90
29551;DHT22;16488;52.396;10.696;2023-05-02T10:32:33;10.70;99.90
29551;DHT22;16488;52.396;10.696;2023-05-02T10:35:02;10.70;99.90
29551;DHT22;16488;52.396;10.696;2023-05-02T10:37:29;10.70;99.90
29551;DHT22;16488;52.396;10.696;2023-05-02T10:39:58;10.60;99.90
29551;DHT22;16488;52.396;10.696;2023-05-02T10:42:24;10.60;99.90
29551;DHT22;16488;52.396;10.696;2023-05-02T10:44:50;10.60;99.90
29551;DHT22;16488;52.396;10.696;2023-05-02T10:47:26;10.70;99.90
29551;DHT22;16488;52.396;10.696;2023-05-02T10:52:28;10.80;99.90
29551;DHT22;16488;52.396;10.696;2023-05-02T10:55:19;10.80;99.90
29551;DHT22;16488;52.396;10.696;2023-05-02T10:58:18;10.90;99.90
29551;DHT22;16488;52.396;10.696;2023-05-02T11:00:43;11.10;99.90
29551;DHT22;16488;52.396;10.696;2023-05-02T11:03:09;11.40;99.90
29551;DHT22;16488;52.396;10.696;2023-05-02T11:06:04;11.30;99.90
29551;DHT22;16488;52.396;10.696;2023-05-02T11:08:31;11.30;99.90
29551;DHT22;16488;52.396;10.696;2023-05-02T11:14:01;11.40;99.90
29551;DHT22;16488;52.396;10.696;2023-05-02T11:17:06;11.50;99.90
29551;DHT22;16488;52.396;10.696;2023-05-02T11:24:45;11.30;99.90
29551;DHT22;16488;52.396;10.696;2023-05-02T11:30:05;11.20;99.90
29551;DHT22;16488;52.396;10.696;2023-05-02T11:35:18;11.20;99.90
29551;DHT22;16488;52.396;10.696;2023-05-02T11:37:55;11.20;99.90
29551;DHT22;16488;52.396;10.696;2023-05-02T11:40:21;11.20;99.90
29551;DHT22;16488;52.396;10.696;2023-05-02T11:42:48;11.10;99.90
29551;DHT22;16488;52.396;10.696;2023-05-02T11:45:14;11.20;99.90
29551;DHT22;16488;52.396;10.696;2023-05-02T11:47:41;11.20;99.90
29551;DHT22;16488;52.396;10.696;2023-05-02T11:50:07;11.30;99.90
29551;DHT22;16488;52.396;10.696;2023-05-02T11:52:37;11.40;99.90
29551;DHT22;16488;52.396;10.696;2023-05-02T11:55:08;11.40;99.90
29551;DHT22;16488;52.396;10.696;2023-05-02T11:57:35;11.50;99.90
29551;DHT22;16488;52.396;10.696;2023-05-02T12:00:02;11.80;98.90
29551;DHT22;16488;52.396;10.696;2023-05-02T12:02:38;11.70;99.20
29551;DHT22;16488;52.396;10.696;2023-05-02T12:05:07;11.70;98.50
29551;DHT22;16488;52.396;10.696;2023-05-02T12:07:44;12.00;99.00
29551;DHT22;16488;52.396;10.696;2023-05-02T12:10:11;12.50;97.30
29551;DHT22;16488;52.396;10.696;2023-05-02T12:12:37;12.50;97.40
29551;DHT22;16488;52.396;10.696;2023-05-02T12:15:05;12.80;98.50
29551;DHT22;16488;52.396;10.696;2023-05-02T12:17:32;13.10;97.30
29551;DHT22;16488;52.396;10.696;2023-05-02T12:19:59;13.00;96.50
29551;DHT22;16488;52.396;10.696;2023-05-02T12:22:24;12.80;95.70
29551;DHT22;16488;52.396;10.696;2023-05-02T12:24:51;12.90;96.70
29551;DHT22;16488;52.396;10.696;2023-05-02T12:27:18;13.00;94.70
29551;DHT22;16488;52.396;10.696;2023-05-02T12:29:48;13.00;94.60
29551;DHT22;16488;52.396;10.696;2023-05-02T12:32:14;12.90;94.20
29551;DHT22;16488;52.396;10.696;2023-05-02T12:34:41;13.00;94.60
29551;DHT22;16488;52.396;10.696;2023-05-02T12:37:07;13.20;96.20
29551;DHT22;16488;52.396;10.696;2023-05-02T12:39:42;13.20;93.30
29551;DHT22;16488;52.396;10.696;2023-05-02T12:42:11;13.40;93.10
29551;DHT22;16488;52.396;10.696;2023-05-02T12:44:38;13.50;92.40
29551;DHT22;16488;52.396;10.696;2023-05-02T12:47:04;13.30;91.90
29551;DHT22;16488;52.396;10.696;2023-05-02T12:49:30;13.20;91.70
29551;DHT22;16488;52.396;10.696;2023-05-02T12:51:55;13.00;91.50
29551;DHT22;16488;52.396;10.696;2023-05-02T12:54:21;12.80;91.70
29551;DHT22;16488;52.396;10.696;2023-05-02T12:56:47;12.80;91.60
29551;DHT22;16488;52.396;10.696;2023-05-02T12:59:31;13.10;92.80
29551;DHT22;16488;52.396;10.696;2023-05-02T13:01:58;13.60;91.90
29551;DHT22;16488;52.396;10.696;2023-05-02T13:04:38;13.80;91.40
29551;DHT22;16488;52.396;10.696;2023-05-02T13:07:06;14.10;90.30
29551;DHT22;16488;52.396;10.696;2023-05-02T13:09:31;14.30;90.00
29551;DHT22;16488;52.396;10.696;2023-05-02T13:11:57;14.30;87.40
29551;DHT22;16488;52.396;10.696;2023-05-02T13:14:24;13.90;86.00
29551;DHT22;16488;52.396;10.696;2023-05-02T13:16:49;13.50;86.70
29551;DHT22;16488;52.396;10.696;2023-05-02T13:19:18;13.00;87.40
29551;DHT22;16488;52.396;10.696;2023-05-02T13:21:43;13.10;90.00
29551;DHT22;16488;52.396;10.696;2023-05-02T13:24:10;12.90;88.20
29551;DHT22;16488;52.396;10.696;2023-05-02T13:26:35;13.30;90.80
29551;DHT22;16488;52.396;10.696;2023-05-02T13:29:01;13.60;85.00
29551;DHT22;16488;52.396;10.696;2023-05-02T13:31:26;13.80;85.60
29551;DHT22;16488;52.396;10.696;2023-05-02T13:33:52;13.90;84.40
29551;DHT22;16488;52.396;10.696;2023-05-02T13:36:18;14.20;83.00
29551;DHT22;16488;52.396;10.696;2023-05-02T13:38:43;14.40;84.10
29551;DHT22;16488;52.396;10.696;2023-05-02T13:41:09;14.30;83.90
29551;DHT22;16488;52.396;10.696;2023-05-02T13:43:35;14.30;84.70
29551;DHT22;16488;52.396;10.696;2023-05-02T13:46:00;14.50;81.20
29551;DHT22;16488;52.396;10.696;2023-05-02T13:48:26;14.40;80.40
29551;DHT22;16488;52.396;10.696;2023-05-02T13:50:51;14.30;78.80
29551;DHT22;16488;52.396;10.696;2023-05-02T13:53:17;14.20;78.10
29551;DHT22;16488;52.396;10.696;2023-05-02T13:55:43;14.20;78.40
29551;DHT22;16488;52.396;10.696;2023-05-02T13:58:08;14.30;79.90
29551;DHT22;16488;52.396;10.696;2023-05-02T14:00:34;14.40;76.00
29551;DHT22;16488;52.396;10.696;2023-05-02T14:03:00;14.40;79.70
29551;DHT22;16488;52.396;10.696;2023-05-02T14:05:26;14.20;79.30
29551;DHT22;16488;52.396;10.696;2023-05-02T14:07:51;14.10;79.50
29551;DHT22;16488;52.396;10.696;2023-05-02T14:10:17;13.80;79.40
29551;DHT22;16488;52.396;10.696;2023-05-02T14:12:42;13.70;80.80
29551;DHT22;16488;52.396;10.696;2023-05-02T14:15:08;13.70;83.50
29551;DHT22;16488;52.396;10.696;2023-05-02T14:17:34;13.60;82.40
29551;DHT22;16488;52.396;10.696;2023-05-02T14:20:00;13.50;83.80
29551;DHT22;16488;52.396;10.696;2023-05-02T14:22:26;13.30;84.50
29551;DHT22;16488;52.396;10.696;2023-05-02T14:24:51;13.20;85.90
29551;DHT22;16488;52.396;10.696;2023-05-02T14:27:17;13.10;84.00
29551;DHT22;16488;52.396;10.696;2023-05-02T14:29:44;13.00;84.80
29551;DHT22;16488;52.396;10.696;2023-05-02T14:32:10;13.00;84.40
29551;DHT22;16488;52.396;10.696;2023-05-02T14:34:35;13.10;85.10
29551;DHT22;16488;52.396;10.696;2023-05-02T14:37:01;13.40;83.40
29551;DHT22;16488;52.396;10.696;2023-05-02T14:39:26;13.40;82.00
29551;DHT22;16488;52.396;10.696;2023-05-02T14:41:52;13.50;82.20
29551;DHT22;16488;52.396;10.696;2023-05-02T14:44:17;13.50;82.10
29551;DHT22;16488;52.396;10.696;2023-05-02T14:46:43;13.80;79.20
29551;DHT22;16488;52.396;10.696;2023-05-02T14:49:09;13.90;80.70
29551;DHT22;16488;52.396;10.696;2023-05-02T14:51:38;13.90;85.40
29551;DHT22;16488;52.396;10.696;2023-05-02T14:54:04;13.70;84.10
29551;DHT22;16488;52.396;10.696;2023-05-02T14:56:31;13.50;82.10
29551;DHT22;16488;52.396;10.696;2023-05-02T14:58:57;13.60;84.70
29551;DHT22;16488;52.396;10.696;2023-05-02T15:01:23;13.40;82.00
29551;DHT22;16488;52.396;10.696;2023-05-02T15:03:49;13.00;82.20
29551;DHT22;16488;52.396;10.696;2023-05-02T15:06:16;12.90;83.50
29551;DHT22;16488;52.396;10.696;2023-05-02T15:08:41;13.00;84.00
29551;DHT22;16488;52.396;10.696;2023-05-02T15:11:09;13.40;86.50
29551;DHT22;16488;52.396;10.696;2023-05-02T15:13:35;13.60;81.80
29551;DHT22;16488;52.396;10.696;2023-05-02T15:16:02;13.80;81.40
29551;DHT22;16488;52.396;10.696;2023-05-02T15:18:28;13.80;80.70
29551;DHT22;16488;52.396;10.696;2023-05-02T15:20:54;14.00;79.80
29551;DHT22;16488;52.396;10.696;2023-05-02T15:23:19;14.40;76.30
29551;DHT22;16488;52.396;10.696;2023-05-02T15:25:45;14.60;77.50
29551;DHT22;16488;52.396;10.696;2023-05-02T15:28:11;14.90;75.00
29551;DHT22;16488;52.396;10.696;2023-05-02T15:30:37;14.90;73.60
29551;DHT22;16488;52.396;10.696;2023-05-02T15:33:03;14.60;76.40
29551;DHT22;16488;52.396;10.696;2023-05-02T15:35:29;14.90;75.70
29551;DHT22;16488;52.396;10.696;2023-05-02T15:37:55;14.90;77.10
29551;DHT22;16488;52.396;10.696;2023-05-02T15:40:21;14.60;72.80
29551;DHT22;16488;52.396;10.696;2023-05-02T15:42:47;14.40;75.90
29551;DHT22;16488;52.396;10.696;2023-05-02T15:45:13;14.00;75.80
29551;DHT22;16488;52.396;10.696;2023-05-02T15:47:39;13.50;77.90
29551;DHT22;16488;52.396;10.696;2023-05-02T15:50:05;12.90;78.90